Time;durP1;ratioP1;P1;durP2;ratioP2;P2;SDS_P1;SDS_P2;PMS_P1;PMS_P2;Temp;Humidity;BMP_temperature;BMP_pressure;BME280_temperature;BME280_humidity;BME280_pressure;Samples;Min_cycle;Max_cycle;Signal;HPM_P1;HPM_P2
2023/06/15 00:02:35;;;;;;;10.45;6.47;;;;;;;18.55;66.70;100300.84;1733854;83;21358;-57
2023/06/15 00:05:43;;;;;;;10.78;5.70;;;;;;;18.56;66.82;100299.80;1733855;83;21681;-58
2023/06/15 00:08:49;;;;;;;9.35;5.95;;;;;;;18.55;66.88;100302.23;1733809;83;21382;-59
2023/06/15 00:11:55;;;;;;;12.05;5.97;;;;;;;18.53;66.96;100302.17;1733902;82;21469;-58
2023/06/15 00:15:02;;;;;;;16.15;5.95;;;;;;;18.52;67.03;100312.40;1733787;82;21306;-59
2023/06/15 00:18:08;;;;;;;15.68;6.30;;;;;;;18.49;67.07;100303.16;1733849;83;21365;-58
2023/06/15 00:21:13;;;;;;;14.70;6.22;;;;;;;18.45;67.12;100296.39;1733872;83;21354;-59
2023/06/15 00:24:18;;;;;;;9.55;5.53;;;;;;;18.41;67.14;100299.30;1733866;83;21393;-59
2023/06/15 00:27:24;;;;;;;14.23;6.20;;;;;;;18.36;67.22;100299.09;1733910;83;21359;-58
2023/06/15 00:30:29;;;;;;;10.25;6.08;;;;;;;18.34;67.35;100293.48;1733841;83;21386;-57
2023/06/15 00:33:35;;;;;;;13.95;6.67;;;;;;;18.31;67.45;100291.17;1732966;81;21859;-57
2023/06/15 00:36:42;;;;;;;11.55;5.90;;;;;;;18.29;67.53;100292.78;1736480;82;21212;-57
2023/06/15 00:39:47;;;;;;;10.05;5.80;;;;;;;18.26;67.61;100297.40;1736447;82;21429;-57
2023/06/15 00:42:52;;;;;;;10.08;5.72;;;;;;;18.23;67.70;100281.23;1736584;82;21385;-57
2023/06/15 00:46:00;;;;;;;12.70;5.90;;;;;;;18.20;67.79;100284.98;1736406;82;21389;-58
2023/06/15 00:49:05;;;;;;;11.57;5.42;;;;;;;18.16;67.83;100281.81;1736583;82;21350;-58
2023/06/15 00:52:12;;;;;;;11.38;6.03;;;;;;;18.13;67.93;100283.66;1736388;82;21902;-58
2023/06/15 00:55:17;;;;;;;13.18;6.03;;;;;;;18.11;68.05;100275.28;1736463;82;21355;-58
2023/06/15 00:58:25;;;;;;;11.15;6.22;;;;;;;18.06;68.09;100277.31;1736424;82;21330;-56
2023/06/15 01:01:32;;;;;;;11.45;6.55;;;;;;;18.03;68.11;100281.92;1736528;82;21361;-57
2023/06/15 01:04:40;;;;;;;14.30;6.95;;;;;;;17.99;68.22;100283.99;1712522;82;21369;-57
2023/06/15 01:07:48;;;;;;;14.83;6.65;;;;;;;17.96;68.29;100277.53;1736525;82;21215;-57
2023/06/15 01:10:57;;;;;;;10.75;5.95;;;;;;;17.94;68.40;100276.37;1736613;82;21394;-57
2023/06/15 01:14:03;;;;;;;13.48;7.00;;;;;;;17.90;68.46;100278.73;1736549;82;21437;-57
2023/06/15 01:17:23;;;;;;;10.95;6.30;;;;;;;17.88;68.60;100275.89;1736539;82;21445;-58
2023/06/15 01:20:27;;;;;;;14.90;6.30;;;;;;;17.86;68.70;100280.27;1736516;82;21402;-58
2023/06/15 01:24:03;;;;;;;10.32;5.90;;;;;;;17.87;68.81;100279.72;1736508;82;21378;-58
2023/06/15 01:27:11;;;;;;;13.05;6.45;;;;;;;17.85;68.87;100281.33;1736628;82;21373;-56
2023/06/15 01:30:19;;;;;;;12.03;6.37;;;;;;;17.84;68.97;100278.78;1736509;82;21494;-56
2023/06/15 01:33:26;;;;;;;12.45;7.05;;;;;;;17.83;69.02;100283.50;1736476;82;21369;-58
2023/06/15 01:36:36;;;;;;;13.93;6.95;;;;;;;17.79;69.10;100281.41;1735897;82;21425;-58
2023/06/15 01:39:42;;;;;;;10.82;6.95;;;;;;;17.78;69.20;100274.16;1736620;82;21397;-58
2023/06/15 01:42:49;;;;;;;11.88;6.12;;;;;;;17.78;69.31;100271.38;1736499;82;21338;-58
2023/06/15 01:45:55;;;;;;;11.55;6.17;;;;;;;17.77;69.37;100287.14;1736448;82;21354;-58
2023/06/15 01:49:02;;;;;;;10.98;6.17;;;;;;;17.74;69.38;100282.05;1736443;82;21370;-58
2023/06/15 01:52:07;;;;;;;11.33;7.45;;;;;;;17.71;69.39;100283.89;1736613;82;21366;-59
2023/06/15 01:55:14;;;;;;;10.03;6.25;;;;;;;17.69;69.44;100290.73;1736526;82;21342;-59
2023/06/15 01:58:20;;;;;;;10.05;6.42;;;;;;;17.66;69.56;100285.09;1736559;82;22025;-58
2023/06/15 02:01:26;;;;;;;11.00;6.58;;;;;;;17.66;69.64;100284.27;1736515;82;21450;-57
2023/06/15 02:04:32;;;;;;;13.30;6.42;;;;;;;17.67;69.70;100288.72;1736491;82;21212;-58
2023/06/15 02:07:40;;;;;;;12.10;6.65;;;;;;;17.66;69.82;100289.80;1736507;82;21402;-58
2023/06/15 02:10:46;;;;;;;16.23;6.83;;;;;;;17.69;69.97;100292.13;1715282;82;21848;-58
2023/06/15 02:13:54;;;;;;;15.25;6.62;;;;;;;17.71;70.07;100295.52;1736499;82;21266;-58
2023/06/15 02:17:02;;;;;;;11.70;6.70;;;;;;;17.71;70.15;100294.97;1736569;82;21472;-56
2023/06/15 02:20:11;;;;;;;10.08;6.58;;;;;;;17.75;70.22;100289.84;1736504;82;21910;-58
2023/06/15 02:23:19;;;;;;;9.20;6.45;;;;;;;17.75;70.24;100291.22;1736545;82;21968;-58
2023/06/15 02:26:29;;;;;;;13.75;6.92;;;;;;;17.75;70.28;100292.08;1736469;82;21843;-57
2023/06/15 02:29:35;;;;;;;12.73;7.58;;;;;;;17.76;70.33;100290.99;1736573;82;21385;-57
2023/06/15 02:32:43;;;;;;;11.22;6.65;;;;;;;17.77;70.42;100290.47;1736428;82;21397;-57
2023/06/15 02:35:51;;;;;;;11.00;7.40;;;;;;;17.80;70.47;100291.40;1734144;82;21385;-57
2023/06/15 02:38:58;;;;;;;9.45;6.37;;;;;;;17.82;70.47;100294.24;1731504;83;21295;-58
2023/06/15 02:42:05;;;;;;;17.02;7.15;;;;;;;17.82;70.51;100290.65;1731613;83;21188;-58
2023/06/15 02:45:11;;;;;;;12.65;7.08;;;;;;;17.84;70.60;100285.70;1731544;83;21378;-58
2023/06/15 02:48:17;;;;;;;10.58;6.62;;;;;;;17.85;70.64;100281.88;1731515;83;21237;-57
2023/06/15 02:51:23;;;;;;;10.88;6.95;;;;;;;17.88;70.68;100287.83;1731521;82;21209;-57
2023/06/15 02:54:29;;;;;;;11.73;6.83;;;;;;;17.90;70.72;100294.53;1731491;83;21235;-58
2023/06/15 02:57:41;;;;;;;10.78;7.47;;;;;;;17.95;70.81;100286.92;1731671;83;21787;-58
2023/06/15 03:00:50;;;;;;;14.05;7.25;;;;;;;18.00;70.88;100284.33;1718742;83;21872;-58
2023/06/15 03:03:58;;;;;;;14.07;7.47;;;;;;;18.04;70.92;100289.71;1730920;82;21191;-56
2023/06/15 03:07:05;;;;;;;15.05;7.85;;;;;;;18.06;70.98;100291.16;1707243;83;21196;-58
2023/06/15 03:10:26;;;;;;;15.63;7.62;;;;;;;18.09;71.06;100285.20;1670740;85;21363;-58
2023/06/15 03:13:34;;;;;;;14.25;7.30;;;;;;;18.15;71.13;100284.81;1730275;82;21193;-58
2023/06/15 03:16:46;;;;;;;19.07;8.35;;;;;;;18.19;71.17;100283.30;1731549;83;21224;-56
2023/06/15 03:19:50;;;;;;;11.50;6.83;;;;;;;18.21;71.15;100284.76;1731480;83;21351;-58
2023/06/15 03:22:56;;;;;;;9.03;7.62;;;;;;;18.23;71.21;100274.83;1731533;83;21390;-58
2023/06/15 03:26:02;;;;;;;11.15;7.28;;;;;;;18.26;71.29;100287.70;1731498;83;21756;-57
2023/06/15 03:29:08;;;;;;;13.28;7.78;;;;;;;18.30;71.34;100293.64;1731606;83;22257;-57
2023/06/15 03:32:17;;;;;;;12.68;8.03;;;;;;;18.32;71.35;100288.16;1731649;82;21359;-58
2023/06/15 03:35:26;;;;;;;12.00;7.60;;;;;;;18.35;71.44;100287.70;1731485;82;21405;-57
2023/06/15 03:38:34;;;;;;;13.43;7.53;;;;;;;18.40;71.49;100289.82;1729086;82;21350;-58
2023/06/15 03:41:41;;;;;;;12.80;7.85;;;;;;;18.44;71.56;100290.52;1730077;82;21351;-56
2023/06/15 03:44:49;;;;;;;13.85;7.67;;;;;;;18.49;71.59;100295.41;1728915;83;21343;-56
2023/06/15 03:47:55;;;;;;;15.58;7.85;;;;;;;18.53;71.68;100297.48;1729262;82;21864;-58
2023/06/15 03:51:02;;;;;;;11.80;7.40;;;;;;;18.57;71.74;100297.31;1728892;83;21840;-58
2023/06/15 03:54:10;;;;;;;10.78;7.50;;;;;;;18.58;71.76;100294.87;1730158;82;21366;-57
2023/06/15 03:57:15;;;;;;;11.50;7.40;;;;;;;18.60;71.81;100289.92;1728916;83;21354;-58
2023/06/15 04:00:25;;;;;;;11.25;7.67;;;;;;;18.63;71.85;100288.07;1728932;83;21363;-56
2023/06/15 04:03:37;;;;;;;11.45;7.20;;;;;;;18.68;71.93;100282.69;1729678;82;21347;-59
2023/06/15 04:06:45;;;;;;;9.43;6.50;;;;;;;18.75;71.97;100280.70;1729969;82;21398;-59
2023/06/15 04:09:50;;;;;;;11.65;7.87;;;;;;;18.82;72.02;100284.78;1728539;82;21402;-58
2023/06/15 04:12:56;;;;;;;11.55;6.80;;;;;;;18.90;72.09;100281.14;1714900;83;21219;-58
2023/06/15 04:16:03;;;;;;;14.13;7.78;;;;;;;18.98;72.08;100285.55;1714752;83;21259;-58
2023/06/15 04:19:10;;;;;;;11.53;8.03;;;;;;;19.05;72.09;100285.77;1686685;83;21180;-57
2023/06/15 04:22:16;;;;;;;13.22;7.12;;;;;;;19.14;72.16;100287.66;1715034;82;21215;-57
2023/06/15 04:25:23;;;;;;;13.38;7.45;;;;;;;19.22;72.20;100284.03;1708140;83;21211;-58
2023/06/15 04:28:30;;;;;;;11.50;7.00;;;;;;;19.29;72.16;100283.45;1714535;83;21290;-57
2023/06/15 04:31:39;;;;;;;12.53;6.62;;;;;;;19.36;72.14;100290.27;1707809;83;21207;-57
2023/06/15 04:34:45;;;;;;;15.00;7.08;;;;;;;19.41;72.12;100282.66;1714678;83;21235;-58
2023/06/15 04:37:52;;;;;;;15.38;8.50;;;;;;;19.45;72.13;100281.08;1707123;82;21266;-57
2023/06/15 04:40:59;;;;;;;14.33;7.10;;;;;;;19.49;72.08;100282.33;1681665;84;21768;-57
2023/06/15 04:44:08;;;;;;;16.23;7.58;;;;;;;19.51;72.13;100282.38;1675589;84;21489;-57
2023/06/15 04:47:15;;;;;;;12.10;6.55;;;;;;;19.57;72.16;100284.77;1681027;85;21232;-57
2023/06/15 04:50:21;;;;;;;13.05;6.58;;;;;;;19.59;72.08;100290.91;1699819;83;21288;-58
2023/06/15 04:53:27;;;;;;;15.30;7.28;;;;;;;19.58;72.06;100295.64;1679735;84;21557;-58
2023/06/15 04:56:34;;;;;;;11.28;6.35;;;;;;;19.57;72.06;100292.53;1680561;83;21263;-57
2023/06/15 04:59:39;;;;;;;16.10;6.22;;;;;;;19.58;72.06;100292.00;1680347;85;21216;-55
2023/06/15 05:02:45;;;;;;;13.13;6.85;;;;;;;19.56;72.08;100291.39;1677985;84;21239;-55
2023/06/15 05:05:53;;;;;;;12.98;6.72;;;;;;;19.55;72.15;100300.81;1688213;83;21837;-60
2023/06/15 05:08:58;;;;;;;11.48;6.58;;;;;;;19.56;72.18;100306.66;1688120;84;21252;-60
2023/06/15 05:12:04;;;;;;;12.40;6.92;;;;;;;19.56;72.18;100306.66;1701017;84;21224;-59
2023/06/15 05:15:11;;;;;;;10.90;6.62;;;;;;;19.55;72.17;100312.75;1699275;83;21201;-59
2023/06/15 05:18:18;;;;;;;9.20;6.55;;;;;;;19.54;72.17;100319.39;1663793;83;21350;-60
2023/06/15 05:21:23;;;;;;;10.38;6.62;;;;;;;19.52;72.19;100318.77;1691774;83;21225;-59
2023/06/15 05:24:29;;;;;;;12.58;6.97;;;;;;;19.54;72.23;100320.78;1624225;86;21254;-61
2023/06/15 05:27:39;;;;;;;10.65;6.50;;;;;;;19.57;72.23;100316.70;1641494;85;21523;-58
2023/06/15 05:30:45;;;;;;;11.20;6.58;;;;;;;19.60;72.27;100318.45;1684580;84;21251;-58
2023/06/15 05:33:52;;;;;;;12.30;6.90;;;;;;;19.62;72.20;100325.15;1690124;84;21210;-59
2023/06/15 05:36:59;;;;;;;10.78;6.60;;;;;;;19.65;72.24;100324.14;1699423;83;21240;-60
2023/06/15 05:40:08;;;;;;;9.63;6.40;;;;;;;19.71;72.26;100325.97;1719634;82;21981;-58
2023/06/15 05:43:14;;;;;;;12.68;7.08;;;;;;;19.79;72.31;100324.81;1735973;82;21354;-60
2023/06/15 05:46:20;;;;;;;11.22;6.87;;;;;;;19.84;72.25;100324.39;1740656;82;21740;-59
2023/06/15 05:49:26;;;;;;;11.50;6.60;;;;;;;19.89;72.18;100334.26;1735666;82;21413;-60
2023/06/15 05:52:33;;;;;;;14.70;6.85;;;;;;;19.91;72.12;100330.70;1735628;82;21240;-57
2023/06/15 05:55:39;;;;;;;14.53;7.40;;;;;;;19.96;72.11;100336.41;1735385;82;21300;-59
2023/06/15 05:58:45;;;;;;;11.57;6.58;;;;;;;19.97;72.07;100331.67;1735489;82;21562;-61
2023/06/15 06:01:50;;;;;;;10.93;6.22;;;;;;;19.96;72.04;100335.02;1706378;84;21418;-61
2023/06/15 06:05:00;;;;;;;10.63;7.42;;;;;;;19.96;71.97;100332.77;1706622;84;21252;-58
2023/06/15 06:08:07;;;;;;;11.30;6.80;;;;;;;19.94;71.96;100330.76;1711115;82;21902;-58
2023/06/15 06:11:14;;;;;;;13.25;6.80;;;;;;;19.94;71.98;100327.98;1720622;82;21441;-56
2023/06/15 06:14:25;;;;;;;10.95;6.33;;;;;;;19.96;72.07;100334.16;1711587;82;21846;-59
2023/06/15 06:17:31;;;;;;;11.33;6.22;;;;;;;20.00;72.09;100337.61;1731314;81;21596;-58
2023/06/15 06:20:39;;;;;;;14.93;6.55;;;;;;;20.09;72.23;100341.73;1709998;82;21354;-58
2023/06/15 06:23:47;;;;;;;11.70;7.08;;;;;;;20.20;72.25;100337.33;1722475;82;21983;-58
2023/06/15 06:26:53;;;;;;;11.40;6.15;;;;;;;20.34;72.37;100337.41;1734616;82;21212;-58
2023/06/15 06:30:00;;;;;;;13.93;6.83;;;;;;;20.52;72.41;100340.05;1726569;82;22138;-59
2023/06/15 06:33:07;;;;;;;12.88;6.35;;;;;;;20.60;72.17;100342.48;1727974;82;21767;-57
2023/06/15 06:36:13;;;;;;;10.90;6.60;;;;;;;20.60;71.99;100343.34;1732601;82;21542;-57
2023/06/15 06:39:18;;;;;;;12.33;6.20;;;;;;;20.57;71.90;100342.97;1700961;82;21223;-60
2023/06/15 06:42:24;;;;;;;13.22;6.35;;;;;;;20.58;71.92;100346.07;1731573;82;21223;-60
2023/06/15 06:45:30;;;;;;;9.98;5.65;;;;;;;20.61;71.92;100349.19;1726160;82;21222;-60
2023/06/15 06:48:36;;;;;;;11.22;6.15;;;;;;;20.65;71.96;100334.26;1730101;82;21216;-58
2023/06/15 06:51:42;;;;;;;11.88;6.62;;;;;;;20.72;72.03;100342.77;1723030;82;21354;-59
2023/06/15 06:54:49;;;;;;;10.82;5.87;;;;;;;20.79;71.91;100344.05;1726959;82;21311;-58
2023/06/15 06:57:49;;;;;;;11.00;6.22;;;;;;;20.86;71.90;100336.43;1744987;81;21220;-58
2023/06/15 07:00:42;;;;;;;10.03;6.08;;;;;;;20.99;71.96;100341.78;1736586;82;21887;-59
2023/06/15 07:03:50;;;;;;;14.03;6.50;;;;;;;21.12;71.92;100347.05;1729125;82;21236;-60
2023/06/15 07:06:58;;;;;;;11.15;6.20;;;;;;;21.23;71.83;100338.40;1727251;83;21359;-59
2023/06/15 07:10:04;;;;;;;9.30;6.10;;;;;;;21.41;71.89;100340.45;1726714;83;21233;-60
2023/06/15 07:13:10;;;;;;;12.75;6.70;;;;;;;21.62;71.91;100336.14;1692455;83;21239;-57
2023/06/15 07:16:16;;;;;;;9.93;5.70;;;;;;;21.79;71.82;100328.16;1739436;81;21247;-60
2023/06/15 07:19:21;;;;;;;15.20;6.58;;;;;;;21.91;71.63;100347.05;1730779;82;21223;-58
2023/06/15 07:22:28;;;;;;;8.75;6.47;;;;;;;22.00;71.42;100333.55;1721217;82;21235;-60
2023/06/15 07:25:35;;;;;;;11.30;6.40;;;;;;;22.01;71.11;100338.87;1721210;82;21262;-59
2023/06/15 07:28:43;;;;;;;14.15;8.35;;;;;;;22.01;71.02;100336.09;1721765;82;22220;-57
2023/06/15 07:31:47;;;;;;;10.80;6.45;;;;;;;22.08;71.07;100331.75;1733824;82;21339;-57
2023/06/15 07:34:54;;;;;;;10.35;6.40;;;;;;;22.20;71.01;100328.33;1725154;82;21795;-56
2023/06/15 07:38:00;;;;;;;8.98;5.80;;;;;;;22.32;70.94;100321.28;1711173;82;21275;-58
2023/06/15 07:41:05;;;;;;;11.68;6.03;;;;;;;22.46;70.98;100326.80;1727918;82;21867;-58
2023/06/15 07:44:14;;;;;;;10.85;6.12;;;;;;;22.57;70.69;100321.17;1737623;81;21240;-59
2023/06/15 07:47:21;;;;;;;10.75;6.42;;;;;;;22.61;70.50;100321.52;1694614;84;21281;-59
2023/06/15 07:50:28;;;;;;;13.55;6.42;;;;;;;22.68;70.37;100319.38;1713573;81;21184;-58
2023/06/15 07:53:33;;;;;;;10.25;5.55;;;;;;;22.75;70.26;100314.47;1732376;82;21732;-57
2023/06/15 07:56:39;;;;;;;10.98;5.75;;;;;;;22.78;70.05;100315.34;1726388;82;21182;-56
2023/06/15 07:59:46;;;;;;;7.87;5.92;;;;;;;22.79;69.95;100312.84;1702606;83;21239;-57
2023/06/15 08:02:54;;;;;;;12.35;6.30;;;;;;;22.97;70.09;100322.33;1710290;82;21192;-57
2023/06/15 08:06:00;;;;;;;12.28;5.70;;;;;;;23.23;70.24;100314.02;1740191;80;21486;-58
2023/06/15 08:09:07;;;;;;;11.83;6.25;;;;;;;23.32;69.84;100314.45;1732755;82;21279;-59
2023/06/15 08:12:14;;;;;;;12.33;6.00;;;;;;;23.40;69.69;100323.20;1730293;81;21490;-57
2023/06/15 08:15:21;;;;;;;11.65;5.37;;;;;;;23.51;69.69;100320.85;1734297;82;21239;-58
2023/06/15 08:18:26;;;;;;;8.38;5.47;;;;;;;23.54;69.31;100322.27;1737423;81;21200;-57
2023/06/15 08:21:35;;;;;;;14.87;6.50;;;;;;;23.60;69.28;100324.86;1732140;81;21189;-58
2023/06/15 08:24:42;;;;;;;12.33;5.83;;;;;;;23.69;69.13;100320.20;1732783;81;21749;-54
2023/06/15 08:27:50;;;;;;;13.78;6.25;;;;;;;23.81;69.05;100328.73;1730910;81;21259;-56
2023/06/15 08:30:56;;;;;;;11.00;5.55;;;;;;;24.01;68.90;100321.11;1722852;82;21930;-58
2023/06/15 08:34:02;;;;;;;16.27;6.65;;;;;;;24.10;68.68;100316.17;1712637;83;21979;-60
2023/06/15 08:37:09;;;;;;;11.97;5.10;;;;;;;24.19;68.50;100317.39;1720621;81;21239;-60
2023/06/15 08:40:15;;;;;;;9.85;5.40;;;;;;;24.25;68.20;100326.66;1655370;85;21212;-57
2023/06/15 08:43:22;;;;;;;14.45;5.67;;;;;;;24.28;68.07;100317.19;1737053;81;21240;-58
2023/06/15 08:46:28;;;;;;;11.33;5.60;;;;;;;24.31;67.79;100318.05;1732213;82;21207;-56
2023/06/15 08:49:37;;;;;;;10.10;5.85;;;;;;;24.27;67.67;100325.84;1714779;82;21270;-57
2023/06/15 08:52:45;;;;;;;9.93;5.37;;;;;;;24.25;67.59;100323.31;1732686;83;21259;-59
2023/06/15 08:55:52;;;;;;;10.85;5.45;;;;;;;24.30;67.49;100323.36;1728080;82;21220;-59
2023/06/15 08:58:59;;;;;;;10.53;5.00;;;;;;;24.42;67.50;100318.41;1724015;83;21220;-59
2023/06/15 09:02:07;;;;;;;10.32;5.67;;;;;;;24.63;67.62;100323.06;1731528;83;21199;-55
2023/06/15 09:05:14;;;;;;;9.38;5.25;;;;;;;24.81;67.39;100305.88;1732601;83;21381;-58
2023/06/15 09:08:23;;;;;;;10.38;5.58;;;;;;;25.06;67.21;100310.77;1737044;82;21776;-60
2023/06/15 09:11:29;;;;;;;8.03;5.60;;;;;;;25.20;66.87;100314.75;1732634;83;21208;-60
2023/06/15 09:14:34;;;;;;;12.95;5.30;;;;;;;25.33;66.62;100313.41;1733416;83;21365;-59
2023/06/15 09:17:47;;;;;;;11.35;5.47;;;;;;;25.18;66.00;100316.97;1733091;83;21393;-59
2023/06/15 09:20:53;;;;;;;8.40;4.65;;;;;;;25.11;66.12;100314.14;1732725;83;21263;-59
2023/06/15 09:24:00;;;;;;;11.08;5.17;;;;;;;25.12;66.15;100313.88;1718239;83;21401;-59
2023/06/15 09:27:07;;;;;;;9.33;5.78;;;;;;;25.23;66.17;100309.17;1720100;83;21223;-58
2023/06/15 09:30:17;;;;;;;11.88;5.62;;;;;;;25.33;66.15;100310.05;1707385;82;21752;-59
2023/06/15 09:33:26;;;;;;;10.68;5.28;;;;;;;25.40;65.96;100311.23;1730075;82;22040;-59
2023/06/15 09:36:32;;;;;;;13.90;5.25;;;;;;;25.49;65.76;100306.78;1732204;83;21553;-57
2023/06/15 09:39:43;;;;;;;8.33;4.87;;;;;;;25.61;65.67;100308.22;1733057;82;21215;-58
2023/06/15 09:43:01;;;;;;;8.08;4.62;;;;;;;25.76;65.59;100304.07;1714344;83;21295;-60
2023/06/15 09:46:21;;;;;;;11.73;5.17;;;;;;;25.91;65.39;100299.05;1709754;82;21315;-60
2023/06/15 09:49:32;;;;;;;10.48;4.92;;;;;;;25.92;64.95;100295.12;1717755;82;21219;-59
2023/06/15 09:52:40;;;;;;;9.78;4.70;;;;;;;25.93;64.92;100289.77;1731159;82;21769;-59
2023/06/15 09:55:50;;;;;;;10.50;4.65;;;;;;;26.11;64.83;100286.47;1710931;82;21951;-58
2023/06/15 09:58:55;;;;;;;12.30;5.05;;;;;;;26.15;64.45;100299.66;1724469;82;21573;-58
2023/06/15 10:02:02;;;;;;;13.98;4.53;;;;;;;26.30;64.19;100294.62;1732579;82;21240;-59
2023/06/15 10:05:08;;;;;;;12.07;5.03;;;;;;;26.45;64.05;100290.38;1734464;82;21207;-58
2023/06/15 10:08:16;;;;;;;11.75;4.42;;;;;;;26.61;63.77;100287.02;1736180;82;21192;-57
2023/06/15 10:11:23;;;;;;;12.10;4.40;;;;;;;26.72;63.42;100292.35;1739986;81;21721;-58
2023/06/15 10:14:43;;;;;;;14.53;4.00;;;;;;;26.73;62.85;100293.20;1734208;82;21208;-56
2023/06/15 10:17:51;;;;;;;7.45;3.75;;;;;;;26.69;62.63;100287.89;1732119;81;21196;-57
2023/06/15 10:20:58;;;;;;;12.88;4.58;;;;;;;26.71;62.43;100294.89;1720068;82;21185;-56
2023/06/15 10:24:07;;;;;;;7.70;3.85;;;;;;;26.70;62.23;100279.17;1737047;81;21752;-56
2023/06/15 10:27:14;;;;;;;13.13;4.60;;;;;;;26.83;62.22;100274.93;1725300;82;21290;-53
2023/06/15 10:30:29;;;;;;;7.12;3.75;;;;;;;27.07;62.26;100277.36;1733142;81;21251;-53
2023/06/15 10:33:59;;;;;;;8.38;4.05;;;;;;;27.18;61.86;100284.08;1723736;82;21223;-54
2023/06/15 10:37:38;;;;;;;14.07;4.70;;;;;;;27.25;61.57;100281.81;1739361;82;21208;-54
2023/06/15 10:40:57;;;;;;;11.60;3.77;;;;;;;27.33;61.16;100277.03;1705552;82;21602;-53
2023/06/15 10:44:07;;;;;;;13.43;4.33;;;;;;;27.54;61.04;100274.37;1738943;82;21224;-53
2023/06/15 10:47:17;;;;;;;11.50;4.00;;;;;;;27.80;60.76;100268.03;1729689;82;21236;-55
2023/06/15 10:50:25;;;;;;;8.18;4.03;;;;;;;27.92;60.54;100266.30;1721539;81;21682;-54
2023/06/15 10:53:35;;;;;;;8.58;4.00;;;;;;;28.05;60.18;100262.24;1735176;81;21286;-55
2023/06/15 10:56:40;;;;;;;9.08;3.83;;;;;;;28.20;59.97;100276.77;1732392;81;21232;-55
2023/06/15 11:00:00;;;;;;;10.18;3.67;;;;;;;28.32;59.55;100267.39;1716268;82;21382;-55
2023/06/15 11:03:08;;;;;;;8.48;3.77;;;;;;;28.32;59.09;100258.95;1730780;82;21216;-56
2023/06/15 11:06:24;;;;;;;5.83;3.17;;;;;;;28.24;58.56;100265.21;1726401;81;21203;-56
2023/06/15 11:09:31;;;;;;;8.53;3.35;;;;;;;28.34;58.45;100258.91;1731226;82;21204;-56
2023/06/15 11:12:47;;;;;;;9.40;3.75;;;;;;;28.48;58.27;100261.94;1718977;82;21192;-53
2023/06/15 11:15:54;;;;;;;8.15;3.65;;;;;;;28.60;57.76;100258.14;1724461;82;21287;-54
2023/06/15 11:19:20;;;;;;;8.90;3.77;;;;;;;28.79;57.52;100263.30;1712909;82;21240;-55
2023/06/15 11:22:26;;;;;;;7.25;4.12;;;;;;;28.82;57.11;100255.64;1735154;82;21196;-55
2023/06/15 11:25:32;;;;;;;13.85;4.00;;;;;;;28.78;56.07;100258.80;1737967;82;21769;-55
2023/06/15 11:28:41;;;;;;;7.80;3.83;;;;;;;28.78;56.07;100258.80;1734687;81;21242;-54
2023/06/15 11:31:47;;;;;;;8.18;3.33;;;;;;;28.95;56.21;100261.98;1740045;81;21769;-55
2023/06/15 11:34:54;;;;;;;7.83;3.75;;;;;;;29.11;55.14;100271.98;1737170;81;21916;-56
2023/06/15 11:37:59;;;;;;;11.20;3.58;;;;;;;28.92;54.81;100279.50;1733577;82;21773;-56
2023/06/15 11:41:11;;;;;;;10.50;3.95;;;;;;;28.92;54.81;100279.50;1733719;82;21216;-57
2023/06/15 11:44:16;;;;;;;7.95;3.72;;;;;;;28.78;54.26;100274.30;1697219;83;21236;-60
2023/06/15 11:47:22;;;;;;;14.60;5.08;;;;;;;28.55;53.63;100267.48;1728838;81;21638;-56
2023/06/15 11:50:30;;;;;;;16.15;5.20;;;;;;;28.55;53.63;100267.48;1735313;82;21205;-56
2023/06/15 11:53:38;;;;;;;11.70;4.95;;;;;;;28.57;53.45;100268.59;1709222;82;21188;-56
2023/06/15 11:56:45;;;;;;;8.83;3.95;;;;;;;28.58;53.06;100260.41;1714159;82;21358;-56
2023/06/15 11:59:52;;;;;;;8.75;3.62;;;;;;;28.60;52.82;100266.59;1701708;83;21267;-56
2023/06/15 12:02:59;;;;;;;10.65;4.15;;;;;;;28.62;52.62;100261.50;1732748;82;21714;-55
2023/06/15 12:06:05;;;;;;;10.50;3.98;;;;;;;28.72;52.52;100262.79;1732043;81;21203;-56
2023/06/15 12:09:11;;;;;;;9.78;3.40;;;;;;;29.14;51.71;100257.28;1714947;82;22124;-56
2023/06/15 12:12:40;;;;;;;32.70;5.00;;;;;;;29.14;51.71;100257.28;1691567;82;21248;-56
2023/06/15 12:15:53;;;;;;;11.50;3.70;;;;;;;29.00;51.27;100270.39;1723854;81;21334;-56
2023/06/15 12:19:02;;;;;;;11.03;3.90;;;;;;;28.74;51.04;100262.78;1724793;81;21244;-59
2023/06/15 12:22:08;;;;;;;8.23;3.47;;;;;;;28.84;51.08;100256.19;1727425;83;21227;-55
2023/06/15 12:25:15;;;;;;;9.00;3.40;;;;;;;28.84;51.08;100256.19;1723350;83;21788;-55
2023/06/15 12:28:26;;;;;;;10.13;3.65;;;;;;;28.83;50.41;100263.80;1730183;82;21274;-55
2023/06/15 12:31:44;;;;;;;6.92;3.15;;;;;;;28.71;50.13;100261.12;1722437;83;21192;-57
2023/06/15 12:34:51;;;;;;;12.00;3.30;;;;;;;28.48;49.81;100257.70;1716920;83;21270;-55
2023/06/15 12:38:30;;;;;;;7.78;3.20;;;;;;;28.48;49.81;100257.70;1728982;81;21208;-55
2023/06/15 12:41:36;;;;;;;9.93;3.40;;;;;;;28.36;49.57;100254.39;1725077;83;21212;-57
2023/06/15 12:44:43;;;;;;;6.85;3.33;;;;;;;28.30;49.36;100259.80;1731129;83;21320;-56
2023/06/15 12:47:49;;;;;;;11.35;3.47;;;;;;;28.28;49.21;100257.28;1731103;82;21927;-56
2023/06/15 12:50:57;;;;;;;11.12;3.70;;;;;;;28.32;49.07;100268.80;1720331;82;21216;-58
2023/06/15 12:54:03;;;;;;;9.35;3.08;;;;;;;28.52;48.71;100272.30;1731235;82;21469;-60
2023/06/15 12:57:09;;;;;;;8.93;3.50;;;;;;;28.52;48.71;100272.30;1726857;81;21246;-60
2023/06/15 13:00:17;;;;;;;9.88;3.02;;;;;;;28.58;48.30;100256.17;1713370;82;21854;-61
2023/06/15 13:03:23;;;;;;;13.50;4.90;;;;;;;28.56;48.05;100252.84;1704595;84;21429;-61
2023/06/15 13:06:30;;;;;;;12.68;3.50;;;;;;;28.48;47.63;100251.48;1730917;82;21394;-60
2023/06/15 13:09:37;;;;;;;8.05;2.85;;;;;;;28.43;47.52;100253.49;1725556;82;21809;-62
2023/06/15 13:12:45;;;;;;;10.45;3.20;;;;;;;28.53;46.79;100247.77;1704913;83;21374;-58
2023/06/15 13:15:51;;;;;;;5.28;3.12;;;;;;;28.53;46.79;100247.77;1711707;84;21207;-59
2023/06/15 13:18:57;;;;;;;9.38;3.70;;;;;;;28.52;47.01;100251.17;1704899;84;21302;-59
2023/06/15 13:22:03;;;;;;;10.28;3.35;;;;;;;28.45;46.72;100247.82;1711559;84;21266;-59
2023/06/15 13:25:11;;;;;;;8.65;3.30;;;;;;;28.39;46.57;100239.71;1705062;84;21413;-57
2023/06/15 13:28:19;;;;;;;9.55;3.60;;;;;;;28.35;46.33;100251.31;1705278;84;21358;-59
2023/06/15 13:31:28;;;;;;;11.70;3.50;;;;;;;28.17;46.12;100252.88;1712146;84;21199;-54
2023/06/15 13:34:33;;;;;;;12.80;3.30;;;;;;;28.17;46.13;100244.42;1705624;83;21453;-49
2023/06/15 13:37:43;;;;;;;11.10;3.20;;;;;;;28.23;46.00;100246.61;1719386;81;21290;-58
2023/06/15 13:40:51;;;;;;;11.90;3.25;;;;;;;28.23;46.00;100246.61;1736046;82;21390;-57
2023/06/15 13:43:59;;;;;;;11.60;3.37;;;;;;;28.30;45.53;100245.72;1737681;81;21828;-58
2023/06/15 13:47:06;;;;;;;10.53;3.35;;;;;;;28.26;45.39;100246.87;1732922;82;21216;-55
2023/06/15 13:50:15;;;;;;;8.43;3.20;;;;;;;28.25;45.29;100242.95;1720289;82;21503;-59
2023/06/15 13:53:20;;;;;;;8.23;3.27;;;;;;;28.20;45.18;100254.25;1711596;82;21203;-59
2023/06/15 13:56:19;;;;;;;10.43;3.98;;;;;;;28.20;45.18;100254.25;1711470;82;21206;-57
2023/06/15 13:59:13;;;;;;;10.55;2.92;;;;;;;28.16;44.81;100250.36;1704772;84;21247;-58
2023/06/15 14:02:19;;;;;;;9.63;3.27;;;;;;;28.12;44.59;100255.72;1711335;84;21230;-54
2023/06/15 14:05:26;;;;;;;16.05;3.83;;;;;;;28.11;44.53;100251.80;1730848;82;21251;-55
2023/06/15 14:08:35;;;;;;;9.50;3.50;;;;;;;28.06;44.28;100256.05;1729768;82;21195;-56
2023/06/15 14:11:41;;;;;;;8.10;3.17;;;;;;;27.97;44.17;100253.61;1703868;84;21196;-56
2023/06/15 14:14:47;;;;;;;10.25;3.70;;;;;;;27.97;44.11;100255.86;1704189;83;21235;-55
2023/06/15 14:17:55;;;;;;;8.90;3.12;;;;;;;28.03;44.03;100259.46;1732224;81;21209;-55
2023/06/15 14:21:01;;;;;;;8.45;3.30;;;;;;;28.08;43.89;100254.65;1733945;82;21288;-55
2023/06/15 14:24:06;;;;;;;14.85;3.30;;;;;;;28.09;43.75;100247.02;1735696;82;21275;-54
2023/06/15 14:27:12;;;;;;;7.35;3.00;;;;;;;28.30;43.71;100252.77;1735432;82;21429;-55